sensor_id;sensor_type;location;lat;lon;timestamp;temperature;humidity
14154;DHT22;7157;53.144;7.570;2024-03-08T00:08:22;2.66;105.63
14154;DHT22;7157;53.144;7.570;2024-03-08T00:18:26;2.64;105.56
14154;DHT22;7157;53.144;7.570;2024-03-08T00:28:30;2.54;105.76
14154;DHT22;7157;53.144;7.570;2024-03-08T00:38:34;2.49;105.99
14154;DHT22;7157;53.144;7.570;2024-03-08T00:48:37;2.51;105.79
14154;DHT22;7157;53.144;7.570;2024-03-08T00:58:41;2.44;105.59
14154;DHT22;7157;53.144;7.570;2024-03-08T01:08:44;2.32;105.39
14154;DHT22;7157;53.144;7.570;2024-03-08T01:18:48;2.30;105.18
14154;DHT22;7157;53.144;7.570;2024-03-08T01:28:52;2.24;105.05
14154;DHT22;7157;53.144;7.570;2024-03-08T01:38:56;2.19;104.74
14154;DHT22;7157;53.144;7.570;2024-03-08T01:48:59;2.07;104.73
14154;DHT22;7157;53.144;7.570;2024-03-08T01:59:05;2.00;104.53
14154;DHT22;7157;53.144;7.570;2024-03-08T02:09:09;1.97;104.57
14154;DHT22;7157;53.144;7.570;2024-03-08T02:19:13;1.95;104.26
14154;DHT22;7157;53.144;7.570;2024-03-08T02:29:18;1.91;104.12
14154;DHT22;7157;53.144;7.570;2024-03-08T02:39:21;1.85;104.04
14154;DHT22;7157;53.144;7.570;2024-03-08T02:49:25;1.83;103.74
14154;DHT22;7157;53.144;7.570;2024-03-08T02:59:28;1.85;103.57
14154;DHT22;7157;53.144;7.570;2024-03-08T03:09:33;1.79;103.37
14154;DHT22;7157;53.144;7.570;2024-03-08T03:19:36;1.76;103.25
14154;DHT22;7157;53.144;7.570;2024-03-08T03:29:44;1.75;103.11
14154;DHT22;7157;53.144;7.570;2024-03-08T03:39:48;1.70;102.95
14154;DHT22;7157;53.144;7.570;2024-03-08T03:49:52;1.58;103.19
14154;DHT22;7157;53.144;7.570;2024-03-08T03:59:56;1.50;103.25
14154;DHT22;7157;53.144;7.570;2024-03-08T04:10:02;1.52;103.12
14154;DHT22;7157;53.144;7.570;2024-03-08T04:20:06;1.51;103.00
14154;DHT22;7157;53.144;7.570;2024-03-08T04:30:13;1.42;102.92
14154;DHT22;7157;53.144;7.570;2024-03-08T04:40:16;1.41;103.12
14154;DHT22;7157;53.144;7.570;2024-03-08T04:50:22;1.35;103.09
14154;DHT22;7157;53.144;7.570;2024-03-08T05:00:25;1.27;103.25
14154;DHT22;7157;53.144;7.570;2024-03-08T05:10:29;1.19;103.53
14154;DHT22;7157;53.144;7.570;2024-03-08T05:20:32;1.16;103.95
14154;DHT22;7157;53.144;7.570;2024-03-08T05:30:38;1.18;104.44
14154;DHT22;7157;53.144;7.570;2024-03-08T05:40:40;1.19;104.69
14154;DHT22;7157;53.144;7.570;2024-03-08T05:50:46;1.20;104.68
14154;DHT22;7157;53.144;7.570;2024-03-08T06:00:49;1.20;104.89
14154;DHT22;7157;53.144;7.570;2024-03-08T06:10:55;1.26;104.70
14154;DHT22;7157;53.144;7.570;2024-03-08T06:21:00;1.27;104.60
14154;DHT22;7157;53.144;7.570;2024-03-08T06:31:04;1.26;104.98
14154;DHT22;7157;53.144;7.570;2024-03-08T06:41:08;1.42;104.81
14154;DHT22;7157;53.144;7.570;2024-03-08T06:51:18;1.53;104.37
14154;DHT22;7157;53.144;7.570;2024-03-08T07:01:21;1.63;104.53
14154;DHT22;7157;53.144;7.570;2024-03-08T07:11:26;1.86;104.07
14154;DHT22;7157;53.144;7.570;2024-03-08T07:21:28;2.02;103.77
14154;DHT22;7157;53.144;7.570;2024-03-08T07:31:33;2.23;103.25
14154;DHT22;7157;53.144;7.570;2024-03-08T07:41:46;2.50;102.31
14154;DHT22;7157;53.144;7.570;2024-03-08T07:51:51;2.73;101.02
14154;DHT22;7157;53.144;7.570;2024-03-08T08:01:54;2.99;98.93
14154;DHT22;7157;53.144;7.570;2024-03-08T08:11:58;3.29;97.61
14154;DHT22;7157;53.144;7.570;2024-03-08T08:22:03;3.69;95.58
14154;DHT22;7157;53.144;7.570;2024-03-08T08:32:07;3.76;93.04
14154;DHT22;7157;53.144;7.570;2024-03-08T08:42:10;3.97;89.15
14154;DHT22;7157;53.144;7.570;2024-03-08T08:52:15;4.08;90.15
14154;DHT22;7157;53.144;7.570;2024-03-08T09:02:18;4.51;86.02
14154;DHT22;7157;53.144;7.570;2024-03-08T09:12:24;4.73;86.00
14154;DHT22;7157;53.144;7.570;2024-03-08T09:22:27;4.87;85.96
14154;DHT22;7157;53.144;7.570;2024-03-08T09:32:31;5.30;83.78
14154;DHT22;7157;53.144;7.570;2024-03-08T09:42:34;5.70;82.66
14154;DHT22;7157;53.144;7.570;2024-03-08T09:52:40;6.17;81.07
14154;DHT22;7157;53.144;7.570;2024-03-08T10:02:45;6.43;79.29
14154;DHT22;7157;53.144;7.570;2024-03-08T10:12:49;6.70;76.63
14154;DHT22;7157;53.144;7.570;2024-03-08T10:22:52;6.97;76.09
14154;DHT22;7157;53.144;7.570;2024-03-08T10:33:12;7.53;73.67
14154;DHT22;7157;53.144;7.570;2024-03-08T10:43:23;7.82;70.90
14154;DHT22;7157;53.144;7.570;2024-03-08T10:53:30;8.14;68.67
14154;DHT22;7157;53.144;7.570;2024-03-08T11:03:47;8.55;63.83
14154;DHT22;7157;53.144;7.570;2024-03-08T11:13:56;9.05;63.60
14154;DHT22;7157;53.144;7.570;2024-03-08T11:23:59;9.29;62.58
14154;DHT22;7157;53.144;7.570;2024-03-08T11:34:03;14.88;50.14
14154;DHT22;7157;53.144;7.570;2024-03-08T11:44:17;22.63;29.15
14154;DHT22;7157;53.144;7.570;2024-03-08T11:54:23;25.20;22.22
14154;DHT22;7157;53.144;7.570;2024-03-08T12:04:26;25.21;21.44
14154;DHT22;7157;53.144;7.570;2024-03-08T12:14:30;26.06;19.84
14154;DHT22;7157;53.144;7.570;2024-03-08T12:24:34;26.31;20.42
14154;DHT22;7157;53.144;7.570;2024-03-08T12:34:40;26.51;20.15
14154;DHT22;7157;53.144;7.570;2024-03-08T12:44:45;25.31;21.31
14154;DHT22;7157;53.144;7.570;2024-03-08T12:54:49;24.45;22.50
14154;DHT22;7157;53.144;7.570;2024-03-08T13:04:52;23.00;24.14
14154;DHT22;7157;53.144;7.570;2024-03-08T13:15:00;20.18;29.88
14154;DHT22;7157;53.144;7.570;2024-03-08T13:25:03;20.60;28.51
14154;DHT22;7157;53.144;7.570;2024-03-08T13:35:08;22.50;26.01
14154;DHT22;7157;53.144;7.570;2024-03-08T13:45:14;21.04;27.95
14154;DHT22;7157;53.144;7.570;2024-03-08T13:55:20;25.03;21.02
14154;DHT22;7157;53.144;7.570;2024-03-08T14:05:24;24.59;21.27
14154;DHT22;7157;53.144;7.570;2024-03-08T14:15:29;23.11;23.91
14154;DHT22;7157;53.144;7.570;2024-03-08T14:25:32;21.36;26.25
14154;DHT22;7157;53.144;7.570;2024-03-08T14:35:37;21.99;24.94
14154;DHT22;7157;53.144;7.570;2024-03-08T14:45:40;20.99;26.55
14154;DHT22;7157;53.144;7.570;2024-03-08T14:55:45;19.87;28.29
14154;DHT22;7157;53.144;7.570;2024-03-08T15:05:49;19.73;28.61
14154;DHT22;7157;53.144;7.570;2024-03-08T15:15:53;17.95;31.57
14154;DHT22;7157;53.144;7.570;2024-03-08T15:25:57;18.86;30.64
14154;DHT22;7157;53.144;7.570;2024-03-08T15:36:02;17.47;32.30
14154;DHT22;7157;53.144;7.570;2024-03-08T15:46:10;15.63;36.59
14154;DHT22;7157;53.144;7.570;2024-03-08T15:56:14;14.14;39.53
14154;DHT22;7157;53.144;7.570;2024-03-08T16:06:17;13.84;41.12
14154;DHT22;7157;53.144;7.570;2024-03-08T16:16:24;12.99;44.31
14154;DHT22;7157;53.144;7.570;2024-03-08T16:26:27;11.78;47.22
14154;DHT22;7157;53.144;7.570;2024-03-08T16:36:36;11.55;47.92
14154;DHT22;7157;53.144;7.570;2024-03-08T16:46:41;10.95;50.27
14154;DHT22;7157;53.144;7.570;2024-03-08T16:56:45;10.58;51.81
14154;DHT22;7157;53.144;7.570;2024-03-08T17:06:48;9.90;54.97
14154;DHT22;7157;53.144;7.570;2024-03-08T17:16:53;9.46;56.07
14154;DHT22;7157;53.144;7.570;2024-03-08T17:26:58;9.24;57.92
14154;DHT22;7157;53.144;7.570;2024-03-08T17:37:02;8.92;58.63
14154;DHT22;7157;53.144;7.570;2024-03-08T17:47:07;8.49;62.22
14154;DHT22;7157;53.144;7.570;2024-03-08T17:57:11;8.24;62.92
14154;DHT22;7157;53.144;7.570;2024-03-08T18:07:16;8.02;64.30
14154;DHT22;7157;53.144;7.570;2024-03-08T18:17:20;7.93;64.55
14154;DHT22;7157;53.144;7.570;2024-03-08T18:27:23;7.74;65.61
14154;DHT22;7157;53.144;7.570;2024-03-08T18:37:31;7.59;66.39
14154;DHT22;7157;53.144;7.570;2024-03-08T18:47:34;7.60;66.12
14154;DHT22;7157;53.144;7.570;2024-03-08T18:57:42;7.38;67.29
14154;DHT22;7157;53.144;7.570;2024-03-08T19:07:48;7.37;66.57
14154;DHT22;7157;53.144;7.570;2024-03-08T19:17:54;7.22;67.40
14154;DHT22;7157;53.144;7.570;2024-03-08T19:27:58;7.08;67.66
14154;DHT22;7157;53.144;7.570;2024-03-08T19:38:04;6.95;67.89
14154;DHT22;7157;53.144;7.570;2024-03-08T19:48:09;6.81;68.60
14154;DHT22;7157;53.144;7.570;2024-03-08T19:58:20;6.75;69.01
14154;DHT22;7157;53.144;7.570;2024-03-08T20:08:24;6.70;68.70
14154;DHT22;7157;53.144;7.570;2024-03-08T20:18:32;6.60;68.75
14154;DHT22;7157;53.144;7.570;2024-03-08T20:28:37;6.48;69.20
14154;DHT22;7157;53.144;7.570;2024-03-08T20:38:44;6.43;69.07
14154;DHT22;7157;53.144;7.570;2024-03-08T20:48:47;6.41;68.96
14154;DHT22;7157;53.144;7.570;2024-03-08T20:58:52;6.30;69.03
14154;DHT22;7157;53.144;7.570;2024-03-08T21:08:55;6.13;70.03
14154;DHT22;7157;53.144;7.570;2024-03-08T21:18:59;6.09;70.05
14154;DHT22;7157;53.144;7.570;2024-03-08T21:29:02;6.11;69.83
14154;DHT22;7157;53.144;7.570;2024-03-08T21:39:07;5.98;70.02
14154;DHT22;7157;53.144;7.570;2024-03-08T21:49:13;5.80;70.66
14154;DHT22;7157;53.144;7.570;2024-03-08T21:59:17;5.75;71.03
14154;DHT22;7157;53.144;7.570;2024-03-08T22:09:20;5.78;70.47
14154;DHT22;7157;53.144;7.570;2024-03-08T22:19:25;5.69;70.60
14154;DHT22;7157;53.144;7.570;2024-03-08T22:29:28;5.61;70.69
14154;DHT22;7157;53.144;7.570;2024-03-08T22:39:33;5.56;70.33
14154;DHT22;7157;53.144;7.570;2024-03-08T22:49:37;5.52;70.48
14154;DHT22;7157;53.144;7.570;2024-03-08T22:59:45;5.51;70.45
14154;DHT22;7157;53.144;7.570;2024-03-08T23:09:51;5.39;70.71
14154;DHT22;7157;53.144;7.570;2024-03-08T23:19:57;5.30;71.10
14154;DHT22;7157;53.144;7.570;2024-03-08T23:30:00;5.18;72.07
14154;DHT22;7157;53.144;7.570;2024-03-08T23:40:14;5.07;72.81
14154;DHT22;7157;53.144;7.570;2024-03-08T23:50:18;5.06;72.92
